Airfield :
LOGIN :

Register | Disclaimer

   EN    FR    IT 

 










Legend :    VFR   Marginal VFR   IFR   Intensive IFR   Very Intensive IFR
Visi :
Ceiling :
>= 8 km
>= 3000ft
5 to 8 km
1000 to 3000 ft
1500m to 5 km
500 to 1000 ft
800 to 1500m
200 to 500 ft
< 800m
< 200 ft
Symbols :   Thunderstorms  Fog  Heavy snow  Heavy precipitations  Wind > 20 kt
SIGMETs :     Misc.  Thunderstorms  Icing  Turbulence  Mountain Waves  Volcanic Ashes






- Airport Elevation : 1 ft


EGCK - Caernarfon

CURRENT METAR :
  • 270420Z AUTO 16005KT 9999 NCD 04/04 Q1040

EXPIRED METARs :
  • 270350Z AUTO 16006KT 9999 NCD 05/04 Q1040
  • 270320Z AUTO 16005KT 110V180 9999 NCD 05/04 Q1040
  • 270250Z AUTO 16007KT 9999 NCD 05/04 Q1040
  • 270220Z AUTO 17008KT 9999 NCD 06/04 Q1040
  • 270150Z AUTO 16005KT 120V190 9999 NCD 05/04 Q1040
  • 270120Z AUTO 16005KT 130V220 9999 NCD 05/04 Q1040

TAF TAF EGCK
Valid from the 27 at 03:00 until the 27 at 12:00 UTC


270156Z 2703/2712 17004KT 9999 FEW025
PROB30
TEMPO 2703/2709 7000



MET'MAP, your aeronautical weather chart ! - Copyright ORBIFLY December 2007 - Disclaimer

ORBIFLY MET'MAP TEAM :

Programming & Development : Alexandra Zaïnal
Concept & original design : Baudouin d'Aumeries
Assistance for programming : Marc-Olivier Méhu
Technical & hardware support : Manuel Goepfert

Contact : metmap@orbifly.com




SOURCES & CREDITS :

   NOAA